sensor_id;sensor_type;location;lat;lon;timestamp;pressure;altitude;pressure_sealevel;temperature;humidity
11643;BME280;5877;50.930;6.918;2023-05-25T00:00:10;101689.63;;;9.10;80.43
11643;BME280;5877;50.930;6.918;2023-05-25T00:05:07;101831.84;;;9.87;81.76
11643;BME280;5877;50.930;6.918;2023-05-25T00:10:09;101832.19;;;9.61;83.82
11643;BME280;5877;50.930;6.918;2023-05-25T00:15:17;101672.47;;;8.54;84.65
11643;BME280;5877;50.930;6.918;2023-05-25T00:20:23;101835.03;;;9.29;88.92
11643;BME280;5877;50.930;6.918;2023-05-25T00:25:24;101831.34;;;9.15;89.91
11643;BME280;5877;50.930;6.918;2023-05-25T00:30:51;101779.91;;;8.91;89.94
11643;BME280;5877;50.930;6.918;2023-05-25T00:35:48;101801.69;;;8.92;90.28
11643;BME280;5877;50.930;6.918;2023-05-25T00:40:54;101818.06;;;8.86;93.48
11643;BME280;5877;50.930;6.918;2023-05-25T00:46:10;101844.53;;;8.99;94.51
11643;BME280;5877;50.930;6.918;2023-05-25T00:51:35;101818.72;;;8.88;93.70
11643;BME280;5877;50.930;6.918;2023-05-25T00:56:31;101700.25;;;8.15;93.66
11643;BME280;5877;50.930;6.918;2023-05-25T01:01:34;101773.22;;;8.50;94.68
11643;BME280;5877;50.930;6.918;2023-05-25T01:06:49;101798.38;;;8.59;95.32
11643;BME280;5877;50.930;6.918;2023-05-25T01:11:41;101676.53;;;7.78;95.79
11643;BME280;5877;50.930;6.918;2023-05-25T01:16:35;101869.47;;;8.78;97.20
11643;BME280;5877;50.930;6.918;2023-05-25T01:22:25;101870.63;;;8.76;97.87
11643;BME280;5877;50.930;6.918;2023-05-25T01:33:03;101823.44;;;8.45;100.00
11643;BME280;5877;50.930;6.918;2023-05-25T01:38:12;101849.41;;;8.55;99.52
11643;BME280;5877;50.930;6.918;2023-05-25T01:43:05;101834.75;;;8.37;100.00
11643;BME280;5877;50.930;6.918;2023-05-25T01:53:53;101748.34;;;7.82;100.00
11643;BME280;5877;50.930;6.918;2023-05-25T01:58:57;101862.34;;;8.56;100.00
11643;BME280;5877;50.930;6.918;2023-05-25T02:04:00;101654.53;;;7.32;100.00
11643;BME280;5877;50.930;6.918;2023-05-25T02:08:55;101663.19;;;7.40;100.00
11643;BME280;5877;50.930;6.918;2023-05-25T02:13:51;101857.59;;;8.52;100.00
11643;BME280;5877;50.930;6.918;2023-05-25T02:18:48;101758.47;;;7.85;100.00
11643;BME280;5877;50.930;6.918;2023-05-25T02:23:44;101852.25;;;8.37;100.00
11643;BME280;5877;50.930;6.918;2023-05-25T02:28:41;101850.59;;;8.20;100.00
11643;BME280;5877;50.930;6.918;2023-05-25T02:33:38;101848.31;;;8.17;100.00
11643;BME280;5877;50.930;6.918;2023-05-25T02:39:00;101786.75;;;7.81;100.00
11643;BME280;5877;50.930;6.918;2023-05-25T02:43:58;101860.56;;;8.24;100.00
11643;BME280;5877;50.930;6.918;2023-05-25T02:49:13;101862.38;;;8.15;100.00
11643;BME280;5877;50.930;6.918;2023-05-25T02:54:16;101750.03;;;7.51;100.00
11643;BME280;5877;50.930;6.918;2023-05-25T02:59:11;101773.38;;;7.60;100.00
11643;BME280;5877;50.930;6.918;2023-05-25T03:04:03;101837.06;;;7.92;100.00
11643;BME280;5877;50.930;6.918;2023-05-25T03:09:00;101873.16;;;8.04;100.00
11643;BME280;5877;50.930;6.918;2023-05-25T03:13:55;101667.72;;;6.65;100.00
11643;BME280;5877;50.930;6.918;2023-05-25T03:18:48;101630.59;;;6.29;100.00
11643;BME280;5877;50.930;6.918;2023-05-25T03:23:55;101881.97;;;7.95;100.00
11643;BME280;5877;50.930;6.918;2023-05-25T03:29:26;101739.72;;;7.08;100.00
11643;BME280;5877;50.930;6.918;2023-05-25T03:34:24;101888.53;;;7.99;100.00
11643;BME280;5877;50.930;6.918;2023-05-25T03:39:25;101892.78;;;8.08;100.00
11643;BME280;5877;50.930;6.918;2023-05-25T03:44:42;101818.78;;;7.67;100.00
11643;BME280;5877;50.930;6.918;2023-05-25T03:49:54;101901.25;;;8.27;100.00
11643;BME280;5877;50.930;6.918;2023-05-25T03:54:51;101893.44;;;8.19;100.00
11643;BME280;5877;50.930;6.918;2023-05-25T03:59:58;101906.84;;;8.40;100.00
11643;BME280;5877;50.930;6.918;2023-05-25T04:05:03;101812.88;;;7.90;100.00
11643;BME280;5877;50.930;6.918;2023-05-25T04:10:02;101840.47;;;8.17;100.00
11643;BME280;5877;50.930;6.918;2023-05-25T04:15:10;101724.56;;;7.61;99.25
11643;BME280;5877;50.930;6.918;2023-05-25T04:20:36;101933.66;;;9.14;98.26
11643;BME280;5877;50.930;6.918;2023-05-25T04:25:37;101891.13;;;9.11;95.65
11643;BME280;5877;50.930;6.918;2023-05-25T04:30:44;101855.91;;;9.14;92.56
11643;BME280;5877;50.930;6.918;2023-05-25T04:36:13;101943.19;;;9.99;88.88
11643;BME280;5877;50.930;6.918;2023-05-25T04:41:28;101961.19;;;10.33;85.07
11643;BME280;5877;50.930;6.918;2023-05-25T04:46:49;101774.59;;;9.53;82.39
11643;BME280;5877;50.930;6.918;2023-05-25T04:51:49;101874.84;;;10.68;79.31
11643;BME280;5877;50.930;6.918;2023-05-25T04:56:43;101963.66;;;11.53;74.69
11643;BME280;5877;50.930;6.918;2023-05-25T05:01:36;101941.84;;;14.48;63.70
11643;BME280;5877;50.930;6.918;2023-05-25T05:06:38;101936.38;;;17.57;50.94
11643;BME280;5877;50.930;6.918;2023-05-25T05:11:32;101919.78;;;19.53;44.88
11643;BME280;5877;50.930;6.918;2023-05-25T05:16:24;101924.03;;;21.15;42.08
11643;BME280;5877;50.930;6.918;2023-05-25T05:21:17;101933.63;;;22.61;38.38
11643;BME280;5877;50.930;6.918;2023-05-25T05:26:11;101948.41;;;24.63;34.89
11643;BME280;5877;50.930;6.918;2023-05-25T05:31:06;101952.25;;;25.66;32.22
11643;BME280;5877;50.930;6.918;2023-05-25T05:36:00;101955.94;;;26.62;30.60
11643;BME280;5877;50.930;6.918;2023-05-25T05:40:53;101956.22;;;26.84;30.71
11643;BME280;5877;50.930;6.918;2023-05-25T05:45:48;101957.25;;;27.49;29.47
11643;BME280;5877;50.930;6.918;2023-05-25T05:50:41;101957.84;;;27.65;28.62
11643;BME280;5877;50.930;6.918;2023-05-25T05:55:34;101966.63;;;27.90;28.71
11643;BME280;5877;50.930;6.918;2023-05-25T06:00:29;101939.47;;;28.46;27.15
11643;BME280;5877;50.930;6.918;2023-05-25T06:05:22;101945.53;;;28.93;26.49
11643;BME280;5877;50.930;6.918;2023-05-25T06:10:18;101975.69;;;29.94;25.72
11643;BME280;5877;50.930;6.918;2023-05-25T06:15:10;101939.84;;;30.20;25.01
11643;BME280;5877;50.930;6.918;2023-05-25T06:20:04;101991.75;;;30.84;24.07
11643;BME280;5877;50.930;6.918;2023-05-25T06:24:57;101969.25;;;30.75;24.33
11643;BME280;5877;50.930;6.918;2023-05-25T06:29:52;101969.44;;;30.47;24.45
11643;BME280;5877;50.930;6.918;2023-05-25T06:34:44;101962.94;;;31.57;22.87
11643;BME280;5877;50.930;6.918;2023-05-25T06:39:37;101948.53;;;31.91;22.42
11643;BME280;5877;50.930;6.918;2023-05-25T06:44:31;101954.16;;;30.12;24.70
11643;BME280;5877;50.930;6.918;2023-05-25T06:49:31;102007.31;;;31.95;22.71
11643;BME280;5877;50.930;6.918;2023-05-25T06:54:24;101984.66;;;33.06;21.18
11643;BME280;5877;50.930;6.918;2023-05-25T06:59:18;102001.97;;;34.78;19.94
11643;BME280;5877;50.930;6.918;2023-05-25T07:04:11;102012.13;;;34.90;19.94
11643;BME280;5877;50.930;6.918;2023-05-25T07:09:04;101982.00;;;35.39;19.12
11643;BME280;5877;50.930;6.918;2023-05-25T07:13:57;101994.16;;;34.40;19.36
11643;BME280;5877;50.930;6.918;2023-05-25T07:18:50;102015.97;;;34.89;19.18
11643;BME280;5877;50.930;6.918;2023-05-25T07:23:43;101984.41;;;34.06;19.84
11643;BME280;5877;50.930;6.918;2023-05-25T07:28:37;102010.28;;;34.33;19.73
11643;BME280;5877;50.930;6.918;2023-05-25T07:33:30;101991.66;;;32.86;20.70
11643;BME280;5877;50.930;6.918;2023-05-25T07:38:22;102003.50;;;32.90;21.35
11643;BME280;5877;50.930;6.918;2023-05-25T07:43:14;102001.44;;;33.37;20.35
11643;BME280;5877;50.930;6.918;2023-05-25T07:48:07;101938.75;;;31.99;21.19
11643;BME280;5877;50.930;6.918;2023-05-25T07:53:00;101968.88;;;32.99;20.84
11643;BME280;5877;50.930;6.918;2023-05-25T07:57:53;101997.50;;;32.20;21.83
11643;BME280;5877;50.930;6.918;2023-05-25T08:02:45;101972.47;;;30.94;22.60
11643;BME280;5877;50.930;6.918;2023-05-25T08:07:38;101946.19;;;31.72;22.08
11643;BME280;5877;50.930;6.918;2023-05-25T08:12:33;101957.25;;;33.11;20.72
11643;BME280;5877;50.930;6.918;2023-05-25T08:17:40;101968.44;;;34.29;19.84
11643;BME280;5877;50.930;6.918;2023-05-25T08:22:34;101996.66;;;34.70;19.32
11643;BME280;5877;50.930;6.918;2023-05-25T08:27:27;101965.59;;;32.85;21.08
11643;BME280;5877;50.930;6.918;2023-05-25T08:32:19;101999.19;;;31.70;22.37
11643;BME280;5877;50.930;6.918;2023-05-25T08:37:12;102016.34;;;29.81;24.79
11643;BME280;5877;50.930;6.918;2023-05-25T08:42:06;101968.06;;;28.01;26.69
11643;BME280;5877;50.930;6.918;2023-05-25T08:47:04;102001.34;;;27.59;28.35
11643;BME280;5877;50.930;6.918;2023-05-25T08:51:57;101911.44;;;30.09;24.37
11643;BME280;5877;50.930;6.918;2023-05-25T08:57:27;101970.69;;;33.37;20.60
11643;BME280;5877;50.930;6.918;2023-05-25T09:03:14;101938.31;;;30.76;22.12
11643;BME280;5877;50.930;6.918;2023-05-25T09:07:46;101993.88;;;29.08;24.88
11643;BME280;5877;50.930;6.918;2023-05-25T09:12:41;101923.34;;;27.95;25.91
11643;BME280;5877;50.930;6.918;2023-05-25T09:17:35;101980.75;;;27.68;26.99
11643;BME280;5877;50.930;6.918;2023-05-25T09:22:28;101961.06;;;26.34;28.93
11643;BME280;5877;50.930;6.918;2023-05-25T09:27:21;101991.28;;;27.45;27.65
11643;BME280;5877;50.930;6.918;2023-05-25T09:32:16;101997.25;;;27.42;27.01
11643;BME280;5877;50.930;6.918;2023-05-25T09:37:14;102013.22;;;27.39;28.05
11643;BME280;5877;50.930;6.918;2023-05-25T09:42:10;102003.00;;;28.85;25.39
11643;BME280;5877;50.930;6.918;2023-05-25T09:47:04;101993.94;;;26.60;27.93
11643;BME280;5877;50.930;6.918;2023-05-25T09:51:59;102006.28;;;28.40;26.11
11643;BME280;5877;50.930;6.918;2023-05-25T09:56:53;101930.25;;;25.53;29.29
11643;BME280;5877;50.930;6.918;2023-05-25T10:01:50;101994.84;;;25.43;30.30
11643;BME280;5877;50.930;6.918;2023-05-25T10:06:44;101956.25;;;24.09;32.11
11643;BME280;5877;50.930;6.918;2023-05-25T10:11:42;101980.84;;;24.77;31.25
11643;BME280;5877;50.930;6.918;2023-05-25T10:16:38;102018.47;;;23.90;32.57
11643;BME280;5877;50.930;6.918;2023-05-25T10:21:34;101985.50;;;24.05;32.58
11643;BME280;5877;50.930;6.918;2023-05-25T10:26:34;102021.22;;;23.23;34.84
11643;BME280;5877;50.930;6.918;2023-05-25T10:31:28;102015.94;;;23.38;35.40
11643;BME280;5877;50.930;6.918;2023-05-25T10:36:24;101998.13;;;23.07;35.39
11643;BME280;5877;50.930;6.918;2023-05-25T10:41:19;102011.44;;;22.91;35.63
11643;BME280;5877;50.930;6.918;2023-05-25T10:46:15;101989.53;;;22.57;35.54
11643;BME280;5877;50.930;6.918;2023-05-25T10:51:10;102008.66;;;22.76;36.50
11643;BME280;5877;50.930;6.918;2023-05-25T10:56:05;101944.56;;;22.17;36.21
11643;BME280;5877;50.930;6.918;2023-05-25T11:01:00;101985.66;;;22.06;37.04
11643;BME280;5877;50.930;6.918;2023-05-25T11:05:55;101993.38;;;22.02;36.63
11643;BME280;5877;50.930;6.918;2023-05-25T11:15:41;101975.78;;;21.53;37.76
11643;BME280;5877;50.930;6.918;2023-05-25T11:20:47;101976.25;;;22.35;36.58
11643;BME280;5877;50.930;6.918;2023-05-25T11:25:41;102014.91;;;22.18;36.61
11643;BME280;5877;50.930;6.918;2023-05-25T11:30:37;101980.38;;;21.35;37.86
11643;BME280;5877;50.930;6.918;2023-05-25T11:35:35;101951.88;;;21.41;38.24
11643;BME280;5877;50.930;6.918;2023-05-25T11:40:35;101960.03;;;21.29;38.01
11643;BME280;5877;50.930;6.918;2023-05-25T11:45:31;101997.16;;;21.80;37.76
11643;BME280;5877;50.930;6.918;2023-05-25T11:50:30;101939.06;;;21.43;37.60
11643;BME280;5877;50.930;6.918;2023-05-25T11:55:22;101994.72;;;21.51;37.15
11643;BME280;5877;50.930;6.918;2023-05-25T12:00:24;102004.22;;;21.20;37.94
11643;BME280;5877;50.930;6.918;2023-05-25T12:05:18;101872.50;;;20.44;38.35
11643;BME280;5877;50.930;6.918;2023-05-25T12:10:16;102014.25;;;21.30;38.35
11643;BME280;5877;50.930;6.918;2023-05-25T12:15:12;102001.94;;;21.29;38.92
11643;BME280;5877;50.930;6.918;2023-05-25T12:20:07;101996.44;;;20.75;39.45
11643;BME280;5877;50.930;6.918;2023-05-25T12:25:04;101960.09;;;20.19;39.82
11643;BME280;5877;50.930;6.918;2023-05-25T12:29:58;101983.19;;;19.28;41.61
11643;BME280;5877;50.930;6.918;2023-05-25T12:34:51;101984.16;;;18.98;41.62
11643;BME280;5877;50.930;6.918;2023-05-25T12:39:53;101998.28;;;19.10;41.84
11643;BME280;5877;50.930;6.918;2023-05-25T12:44:46;102002.06;;;19.26;41.27
11643;BME280;5877;50.930;6.918;2023-05-25T12:49:40;102019.00;;;18.85;42.17
11643;BME280;5877;50.930;6.918;2023-05-25T12:54:44;102024.56;;;18.95;41.63
11643;BME280;5877;50.930;6.918;2023-05-25T12:59:39;102028.84;;;18.85;41.54
11643;BME280;5877;50.930;6.918;2023-05-25T13:04:33;101980.03;;;18.67;42.04
11643;BME280;5877;50.930;6.918;2023-05-25T13:09:26;102020.84;;;18.73;42.09
11643;BME280;5877;50.930;6.918;2023-05-25T13:14:18;101998.16;;;18.59;41.69
11643;BME280;5877;50.930;6.918;2023-05-25T13:19:13;101982.53;;;18.50;42.17
11643;BME280;5877;50.930;6.918;2023-05-25T13:24:06;101977.25;;;18.62;42.33
11643;BME280;5877;50.930;6.918;2023-05-25T13:28:59;101999.53;;;18.49;42.72
11643;BME280;5877;50.930;6.918;2023-05-25T13:33:51;101994.00;;;18.51;41.83
11643;BME280;5877;50.930;6.918;2023-05-25T13:38:43;101979.44;;;18.77;41.71
11643;BME280;5877;50.930;6.918;2023-05-25T13:43:36;101984.28;;;18.92;41.75
11643;BME280;5877;50.930;6.918;2023-05-25T13:48:28;101939.44;;;18.84;41.42
11643;BME280;5877;50.930;6.918;2023-05-25T13:53:22;101975.16;;;18.99;41.68
11643;BME280;5877;50.930;6.918;2023-05-25T13:58:15;101948.94;;;18.68;41.68
11643;BME280;5877;50.930;6.918;2023-05-25T14:03:07;101963.84;;;18.80;41.49
11643;BME280;5877;50.930;6.918;2023-05-25T14:08:01;101958.56;;;19.49;40.05
11643;BME280;5877;50.930;6.918;2023-05-25T14:12:58;101983.63;;;19.76;40.36
11643;BME280;5877;50.930;6.918;2023-05-25T14:17:51;101917.50;;;19.05;40.90
11643;BME280;5877;50.930;6.918;2023-05-25T14:22:46;101959.75;;;19.41;41.44
11643;BME280;5877;50.930;6.918;2023-05-25T14:27:39;101939.88;;;19.32;40.93
11643;BME280;5877;50.930;6.918;2023-05-25T14:32:31;101963.25;;;19.70;40.11
11643;BME280;5877;50.930;6.918;2023-05-25T14:37:24;101944.81;;;19.52;40.38
11643;BME280;5877;50.930;6.918;2023-05-25T14:42:16;101950.16;;;19.40;40.18
11643;BME280;5877;50.930;6.918;2023-05-25T14:47:08;101967.44;;;19.66;40.21
11643;BME280;5877;50.930;6.918;2023-05-25T14:52:00;101940.41;;;19.46;40.89
11643;BME280;5877;50.930;6.918;2023-05-25T14:57:16;101951.41;;;19.50;41.56
11643;BME280;5877;50.930;6.918;2023-05-25T15:02:08;101982.09;;;19.40;40.94
11643;BME280;5877;50.930;6.918;2023-05-25T15:07:00;101954.44;;;19.41;41.82
11643;BME280;5877;50.930;6.918;2023-05-25T15:11:52;101922.31;;;19.60;40.98
11643;BME280;5877;50.930;6.918;2023-05-25T15:16:45;101894.81;;;19.42;41.11
11643;BME280;5877;50.930;6.918;2023-05-25T15:21:37;101972.84;;;19.43;41.74
11643;BME280;5877;50.930;6.918;2023-05-25T15:26:30;101966.06;;;19.24;41.64
11643;BME280;5877;50.930;6.918;2023-05-25T15:31:23;101949.69;;;19.03;41.45
11643;BME280;5877;50.930;6.918;2023-05-25T15:36:15;101941.44;;;19.17;41.35
11643;BME280;5877;50.930;6.918;2023-05-25T15:41:07;101956.28;;;19.53;41.73
11643;BME280;5877;50.930;6.918;2023-05-25T15:45:59;101898.50;;;19.13;41.51
11643;BME280;5877;50.930;6.918;2023-05-25T15:50:53;101956.97;;;19.48;41.14
11643;BME280;5877;50.930;6.918;2023-05-25T15:55:45;101932.78;;;19.09;41.38
11643;BME280;5877;50.930;6.918;2023-05-25T16:00:38;101947.06;;;19.32;41.31
11643;BME280;5877;50.930;6.918;2023-05-25T16:05:30;101953.09;;;19.27;41.52
11643;BME280;5877;50.930;6.918;2023-05-25T16:10:22;101933.66;;;19.27;41.64
11643;BME280;5877;50.930;6.918;2023-05-25T16:15:15;101919.28;;;18.88;42.78
11643;BME280;5877;50.930;6.918;2023-05-25T16:20:10;101907.19;;;18.68;43.28
11643;BME280;5877;50.930;6.918;2023-05-25T16:25:03;101924.16;;;18.79;43.52
11643;BME280;5877;50.930;6.918;2023-05-25T16:29:55;101944.72;;;18.95;43.12
11643;BME280;5877;50.930;6.918;2023-05-25T16:34:48;101903.59;;;18.63;42.67
11643;BME280;5877;50.930;6.918;2023-05-25T16:39:41;101922.41;;;18.85;42.73
11643;BME280;5877;50.930;6.918;2023-05-25T16:44:33;101933.41;;;18.41;42.64
11643;BME280;5877;50.930;6.918;2023-05-25T16:49:26;101934.09;;;18.48;43.15
11643;BME280;5877;50.930;6.918;2023-05-25T16:54:18;101926.13;;;18.37;43.42
11643;BME280;5877;50.930;6.918;2023-05-25T16:59:11;101941.72;;;18.22;44.35
11643;BME280;5877;50.930;6.918;2023-05-25T17:04:03;101932.13;;;18.21;43.39
11643;BME280;5877;50.930;6.918;2023-05-25T17:08:57;101945.44;;;18.09;44.02
11643;BME280;5877;50.930;6.918;2023-05-25T17:13:57;101953.31;;;18.15;43.99
11643;BME280;5877;50.930;6.918;2023-05-25T17:18:49;101902.34;;;17.65;44.29
11643;BME280;5877;50.930;6.918;2023-05-25T17:23:41;101941.63;;;18.05;44.00
11643;BME280;5877;50.930;6.918;2023-05-25T17:28:34;101926.19;;;17.83;44.14
11643;BME280;5877;50.930;6.918;2023-05-25T17:33:27;101907.44;;;17.67;44.67
11643;BME280;5877;50.930;6.918;2023-05-25T17:38:19;101894.25;;;17.60;44.56
11643;BME280;5877;50.930;6.918;2023-05-25T17:43:11;101927.47;;;17.81;44.35
11643;BME280;5877;50.930;6.918;2023-05-25T17:48:05;101933.00;;;17.79;44.48
11643;BME280;5877;50.930;6.918;2023-05-25T17:52:59;101932.09;;;17.56;45.02
11643;BME280;5877;50.930;6.918;2023-05-25T17:57:51;101917.06;;;17.19;45.61
11643;BME280;5877;50.930;6.918;2023-05-25T18:02:45;101917.63;;;17.22;45.92
11643;BME280;5877;50.930;6.918;2023-05-25T18:07:38;101955.34;;;17.42;46.34
11643;BME280;5877;50.930;6.918;2023-05-25T18:12:42;101885.84;;;16.85;46.46
11643;BME280;5877;50.930;6.918;2023-05-25T18:17:40;101963.34;;;17.05;47.30
11643;BME280;5877;50.930;6.918;2023-05-25T18:23:06;101902.59;;;16.61;47.69
11643;BME280;5877;50.930;6.918;2023-05-25T18:28:36;101960.09;;;16.85;48.14
11643;BME280;5877;50.930;6.918;2023-05-25T18:33:42;101901.50;;;16.25;48.27
11643;BME280;5877;50.930;6.918;2023-05-25T18:45:20;101910.09;;;15.96;49.24
11643;BME280;5877;50.930;6.918;2023-05-25T18:57:15;101979.13;;;16.01;50.68
11643;BME280;5877;50.930;6.918;2023-05-25T19:03:04;101956.69;;;15.72;51.39
11643;BME280;5877;50.930;6.918;2023-05-25T19:09:03;101972.59;;;15.65;52.02
11643;BME280;5877;50.930;6.918;2023-05-25T19:15:03;101984.28;;;15.51;53.20
11643;BME280;5877;50.930;6.918;2023-05-25T19:20:31;101983.72;;;15.36;53.42
11643;BME280;5877;50.930;6.918;2023-05-25T19:26:38;101925.34;;;14.73;54.30
11643;BME280;5877;50.930;6.918;2023-05-25T19:32:20;101990.34;;;15.00;54.59
11643;BME280;5877;50.930;6.918;2023-05-25T19:38:57;101936.53;;;14.48;55.14
11643;BME280;5877;50.930;6.918;2023-05-25T19:44:41;102001.16;;;14.79;55.43
11643;BME280;5877;50.930;6.918;2023-05-25T19:50:28;102010.72;;;14.67;56.15
11643;BME280;5877;50.930;6.918;2023-05-25T19:56:15;102023.31;;;14.65;56.67
11643;BME280;5877;50.930;6.918;2023-05-25T20:02:55;101990.78;;;14.31;57.41
11643;BME280;5877;50.930;6.918;2023-05-25T20:20:11;101949.84;;;13.68;58.97
11643;BME280;5877;50.930;6.918;2023-05-25T21:49:17;102030.13;;;12.55;67.41
11643;BME280;5877;50.930;6.918;2023-05-25T21:54:50;102053.06;;;12.61;68.41
11643;BME280;5877;50.930;6.918;2023-05-25T22:00:26;102001.28;;;12.25;68.46
11643;BME280;5877;50.930;6.918;2023-05-25T22:19:37;102068.88;;;12.40;70.40
11643;BME280;5877;50.930;6.918;2023-05-25T22:31:05;102059.06;;;12.12;70.77
11643;BME280;5877;50.930;6.918;2023-05-25T22:36:45;101961.56;;;11.48;70.73
11643;BME280;5877;50.930;6.918;2023-05-25T22:42:15;101928.34;;;11.11;72.06
11643;BME280;5877;50.930;6.918;2023-05-25T22:47:14;102095.56;;;12.00;72.88
11643;BME280;5877;50.930;6.918;2023-05-25T22:52:21;101956.09;;;10.99;74.28
11643;BME280;5877;50.930;6.918;2023-05-25T22:57:36;102060.22;;;11.59;74.50
11643;BME280;5877;50.930;6.918;2023-05-25T23:03:06;102020.44;;;11.32;75.83
11643;BME280;5877;50.930;6.918;2023-05-25T23:08:21;102101.78;;;11.78;77.17
11643;BME280;5877;50.930;6.918;2023-05-25T23:13:35;101841.00;;;10.06;77.11
11643;BME280;5877;50.930;6.918;2023-05-25T23:18:37;102031.56;;;11.20;77.82
11643;BME280;5877;50.930;6.918;2023-05-25T23:23:47;102059.22;;;11.30;78.28
11643;BME280;5877;50.930;6.918;2023-05-25T23:28:41;102095.03;;;11.46;79.04
11643;BME280;5877;50.930;6.918;2023-05-25T23:33:34;102030.91;;;11.03;79.73
11643;BME280;5877;50.930;6.918;2023-05-25T23:38:47;101974.63;;;10.68;80.43
11643;BME280;5877;50.930;6.918;2023-05-25T23:43:51;101896.63;;;10.24;81.64
11643;BME280;5877;50.930;6.918;2023-05-25T23:49:13;101966.81;;;10.60;82.99
11643;BME280;5877;50.930;6.918;2023-05-25T23:54:50;101925.06;;;10.35;83.09
